Terminal Aerodrome Forecast
Issued by NWS Jackson, MS

Home | Current Version | Previous Version | Text Only | Print | Product List | Glossary On
Versions: 1 2 3 4 5 6 7 8 9 10 11 12 13 14 15 16 17
755
FTUS44 KJAN 172320
TAFGWO
TAF
KGWO 172320Z 1800/1824 36003KT P6SM -RA BKN007 OVC070
     FM180400 03003KT 4SM BR OVC006
     FM181000 02003KT 2SM BR OVC006
     FM181500 06004KT 5SM BR OVC007
     FM181700 08005KT 6SM -RA BR OVC015=

USA.gov is the U.S. government's official web portal to all federal, state and local government web resources and services.